createdAt,value
2022-11-08T00:00:44.044Z,12.43
2022-11-08T00:03:10.889Z,12.33
2022-11-08T00:05:56.441Z,12.30
2022-11-08T00:08:41.769Z,12.28
2022-11-08T00:11:27.096Z,12.27
2022-11-08T00:13:59.986Z,12.22
2022-11-08T00:16:27.777Z,12.22
2022-11-08T00:18:54.549Z,12.17
2022-11-08T00:21:21.135Z,12.19
2022-11-08T00:23:47.922Z,12.25
2022-11-08T00:26:14.691Z,12.19
2022-11-08T00:28:41.398Z,12.27
2022-11-08T00:31:08.250Z,12.23
2022-11-08T00:33:35.026Z,12.26
2022-11-08T00:36:02.731Z,12.23
2022-11-08T00:38:29.703Z,12.30
2022-11-08T00:40:56.324Z,12.22
2022-11-08T00:43:22.947Z,12.27
2022-11-08T00:45:49.672Z,12.25
2022-11-08T00:48:16.561Z,12.21
2022-11-08T00:50:43.468Z,12.19
2022-11-08T00:53:10.252Z,12.16
2022-11-08T00:55:36.875Z,12.18
2022-11-08T00:58:03.700Z,12.17
2022-11-08T01:00:31.235Z,12.16
2022-11-08T01:03:16.434Z,12.18
2022-11-08T01:05:43.124Z,12.17
2022-11-08T01:08:10.349Z,12.19
2022-11-08T01:10:37.617Z,12.17
2022-11-08T01:13:04.318Z,12.10
2022-11-08T01:15:38.587Z,12.13
2022-11-08T01:18:05.559Z,12.15
2022-11-08T01:20:33.050Z,12.17
2022-11-08T01:23:00.946Z,12.20
2022-11-08T01:25:27.661Z,12.21
2022-11-08T01:27:54.353Z,12.26
2022-11-08T01:30:21.225Z,12.23
2022-11-08T01:32:47.943Z,12.20
2022-11-08T01:35:14.686Z,12.23
2022-11-08T01:37:41.424Z,12.23
2022-11-08T01:40:08.934Z,12.23
2022-11-08T01:42:35.678Z,12.25
2022-11-08T01:45:05.474Z,12.23
2022-11-08T01:47:32.260Z,12.21
2022-11-08T01:50:09.690Z,12.25
2022-11-08T01:52:41.986Z,12.21
2022-11-08T01:55:20.922Z,12.23
2022-11-08T01:58:14.132Z,12.17
2022-11-08T02:00:41.025Z,12.10
2022-11-08T02:03:12.403Z,12.07
2022-11-08T02:05:39.985Z,12.13
2022-11-08T02:08:10.161Z,12.04
2022-11-08T02:10:39.914Z,12.07
2022-11-08T02:13:16.903Z,12.04
2022-11-08T02:15:43.952Z,12.05
2022-11-08T02:18:11.679Z,11.98
2022-11-08T02:20:48.024Z,12.03
2022-11-08T02:23:26.603Z,12.01
2022-11-08T02:25:53.756Z,12.02
2022-11-08T02:28:21.038Z,12.02
2022-11-08T02:30:47.850Z,12.05
2022-11-08T02:33:20.505Z,12.03
2022-11-08T02:35:50.301Z,12.01
2022-11-08T02:38:18.064Z,12.05
2022-11-08T02:40:52.828Z,12.06
2022-11-08T02:43:19.928Z,12.00
2022-11-08T02:45:47.374Z,11.98
2022-11-08T02:48:16.382Z,11.98
2022-11-08T02:50:43.903Z,11.93
2022-11-08T02:53:11.304Z,11.99
2022-11-08T02:55:38.480Z,11.98
2022-11-08T02:58:05.337Z,11.93
2022-11-08T03:00:32.535Z,11.96
2022-11-08T03:02:59.518Z,11.93
2022-11-08T03:05:27.748Z,11.91
2022-11-08T03:07:55.276Z,11.93
2022-11-08T03:10:26.267Z,11.92
2022-11-08T03:13:03.856Z,11.94
2022-11-08T03:15:30.790Z,11.92
2022-11-08T03:17:58.463Z,11.94
2022-11-08T03:20:31.141Z,11.87
2022-11-08T03:23:00.849Z,11.86
2022-11-08T03:25:27.957Z,11.88
2022-11-08T03:27:54.571Z,11.87
2022-11-08T03:30:21.842Z,11.89
2022-11-08T03:32:49.931Z,11.92
2022-11-08T03:35:16.846Z,11.92
2022-11-08T03:37:53.481Z,11.86
2022-11-08T03:40:21.432Z,11.92
2022-11-08T03:42:48.702Z,11.91
2022-11-08T03:45:16.176Z,11.91
2022-11-08T03:47:44.383Z,11.90
2022-11-08T03:50:13.583Z,11.92
2022-11-08T03:52:46.081Z,11.92
2022-11-08T03:55:13.615Z,11.89
2022-11-08T03:57:41.083Z,11.91
2022-11-08T04:00:09.942Z,11.93
2022-11-08T04:02:36.869Z,11.92
2022-11-08T04:05:03.829Z,11.91
2022-11-08T04:07:30.555Z,11.99
2022-11-08T04:09:57.450Z,11.93
2022-11-08T04:12:42.750Z,11.98
2022-11-08T04:15:16.542Z,11.92
2022-11-08T04:18:02.139Z,11.93
2022-11-08T04:20:47.412Z,11.84
2022-11-08T04:23:15.112Z,11.85
2022-11-08T04:25:42.088Z,11.81
2022-11-08T04:28:09.137Z,11.75
2022-11-08T04:30:35.968Z,11.76
2022-11-08T04:33:04.114Z,11.77
2022-11-08T04:35:31.827Z,11.70
2022-11-08T04:38:00.227Z,11.68
2022-11-08T04:40:27.612Z,11.63
2022-11-08T04:42:54.247Z,11.68
2022-11-08T04:45:21.117Z,11.60
2022-11-08T04:47:48.711Z,11.55
2022-11-08T04:50:16.148Z,11.51
2022-11-08T04:52:43.045Z,11.46
2022-11-08T04:55:09.782Z,11.42
2022-11-08T04:57:36.462Z,11.37
2022-11-08T05:00:04.201Z,11.34
2022-11-08T05:02:31.068Z,11.33
2022-11-08T05:04:57.857Z,11.24
2022-11-08T05:07:24.730Z,11.20
2022-11-08T05:09:51.466Z,11.17
2022-11-08T05:12:18.170Z,11.17
2022-11-08T05:14:44.784Z,11.15
2022-11-08T05:17:13.767Z,11.11
2022-11-08T05:19:59.060Z,11.08
2022-11-08T05:22:45.345Z,11.04
2022-11-08T05:25:12.032Z,11.01
2022-11-08T05:27:38.765Z,10.99
2022-11-08T05:30:06.165Z,11.00
2022-11-08T05:32:32.901Z,10.96
2022-11-08T05:34:59.530Z,10.92
2022-11-08T05:37:26.238Z,10.92
2022-11-08T05:39:52.836Z,10.87
2022-11-08T05:42:19.485Z,10.88
2022-11-08T05:44:46.165Z,10.84
2022-11-08T05:47:12.971Z,10.88
2022-11-08T05:49:39.700Z,10.89
2022-11-08T05:52:06.545Z,10.90
2022-11-08T05:54:33.283Z,10.88
2022-11-08T05:56:59.988Z,10.85
2022-11-08T05:59:26.603Z,10.82
2022-11-08T06:01:53.281Z,10.81
2022-11-08T06:04:20.216Z,10.81
2022-11-08T06:06:50.027Z,10.74
2022-11-08T06:09:16.742Z,10.78
2022-11-08T06:11:43.443Z,10.74
2022-11-08T06:14:10.203Z,10.68
2022-11-08T06:16:36.922Z,10.71
2022-11-08T06:19:03.684Z,10.71
2022-11-08T06:21:30.344Z,10.72
2022-11-08T06:23:57.015Z,10.70
2022-11-08T06:26:24.515Z,10.67
2022-11-08T06:28:51.414Z,10.68
2022-11-08T06:31:18.401Z,10.69
2022-11-08T06:33:45.488Z,10.70
2022-11-08T06:36:12.275Z,10.65
2022-11-08T06:38:39.036Z,10.62
2022-11-08T06:41:05.824Z,10.58
2022-11-08T06:43:32.606Z,10.57
2022-11-08T06:46:02.657Z,10.51
2022-11-08T06:48:35.090Z,10.48
2022-11-08T06:51:03.667Z,10.54
2022-11-08T06:53:30.367Z,10.51
2022-11-08T06:55:59.750Z,10.44
2022-11-08T06:58:26.415Z,10.49
2022-11-08T07:00:53.203Z,10.54
2022-11-08T07:03:20.258Z,10.53
2022-11-08T07:05:47.156Z,10.54
2022-11-08T07:08:15.227Z,10.60
2022-11-08T07:10:42.068Z,10.68
2022-11-08T07:13:11.785Z,10.67
2022-11-08T07:15:38.631Z,10.73
2022-11-08T07:18:12.354Z,10.79
2022-11-08T07:20:39.868Z,10.82
2022-11-08T07:23:07.462Z,10.83
2022-11-08T07:25:34.240Z,10.84
2022-11-08T07:28:05.508Z,10.92
2022-11-08T07:30:33.536Z,10.94
2022-11-08T07:33:00.216Z,11.01
2022-11-08T07:35:28.084Z,11.03
2022-11-08T07:37:55.348Z,11.04
2022-11-08T07:40:22.439Z,11.18
2022-11-08T07:43:10.503Z,11.22
2022-11-08T07:45:35.856Z,11.28
2022-11-08T07:48:09.782Z,11.39
2022-11-08T07:50:39.248Z,11.48
2022-11-08T07:53:06.012Z,11.74
2022-11-08T07:55:35.286Z,11.69
2022-11-08T07:58:02.252Z,11.90
2022-11-08T08:00:33.731Z,12.07
2022-11-08T08:03:01.819Z,12.17
2022-11-08T08:05:30.437Z,12.35
2022-11-08T08:08:01.982Z,12.36
2022-11-08T08:10:29.962Z,12.50
2022-11-08T08:12:57.160Z,12.48
2022-11-08T08:15:24.523Z,12.66
2022-11-08T08:17:51.438Z,12.51
2022-11-08T08:20:18.488Z,12.58
2022-11-08T08:22:46.177Z,12.67
2022-11-08T08:25:13.444Z,12.86
2022-11-08T08:27:40.446Z,12.90
2022-11-08T08:30:07.851Z,12.85
2022-11-08T08:32:34.761Z,13.00
2022-11-08T08:35:01.548Z,12.90
2022-11-08T08:37:28.463Z,13.01
2022-11-08T08:39:55.057Z,13.15
2022-11-08T08:42:21.788Z,13.17
2022-11-08T08:44:48.451Z,13.32
2022-11-08T08:47:15.168Z,13.54
2022-11-08T08:49:41.913Z,13.58
2022-11-08T08:52:08.763Z,13.83
2022-11-08T08:54:35.460Z,14.03
2022-11-08T08:57:02.288Z,14.35
2022-11-08T09:02:17.581Z,14.68
2022-11-08T09:04:44.361Z,14.44
2022-11-08T09:07:11.174Z,14.55
2022-11-08T09:09:38.078Z,14.89
2022-11-08T09:12:07.956Z,14.81
2022-11-08T09:14:36.995Z,15.17
2022-11-08T09:17:03.741Z,15.14
2022-11-08T09:19:30.557Z,15.42
2022-11-08T09:21:57.341Z,15.70
2022-11-08T09:24:24.145Z,15.40
2022-11-08T09:26:50.852Z,15.63
2022-11-08T09:29:17.697Z,16.07
2022-11-08T09:31:44.403Z,16.00
2022-11-08T09:34:11.250Z,16.45
2022-11-08T09:36:37.931Z,16.10
2022-11-08T09:39:04.594Z,16.01
2022-11-08T09:41:51.510Z,16.48
2022-11-08T09:44:51.295Z,16.47
2022-11-08T09:47:25.907Z,15.75
2022-11-08T09:50:04.641Z,16.04
2022-11-08T09:52:33.779Z,15.97
2022-11-08T09:55:19.437Z,16.11
2022-11-08T09:58:24.970Z,16.57
2022-11-08T10:00:53.170Z,16.58
2022-11-08T10:03:24.115Z,16.30
2022-11-08T10:05:56.687Z,16.16
2022-11-08T10:08:40.784Z,16.56
2022-11-08T10:11:35.246Z,16.41
2022-11-08T10:14:34.080Z,16.55
2022-11-08T10:17:25.272Z,16.24
2022-11-08T10:20:35.330Z,16.58
2022-11-08T10:23:10.671Z,15.88
2022-11-08T10:25:45.329Z,16.10
2022-11-08T10:28:17.119Z,16.13
2022-11-08T10:30:48.154Z,16.16
2022-11-08T10:33:32.553Z,16.51
2022-11-08T10:36:09.530Z,16.65
2022-11-08T10:38:44.862Z,16.66
2022-11-08T10:41:41.037Z,16.48
2022-11-08T10:44:21.014Z,16.71
2022-11-08T10:46:58.216Z,16.74
2022-11-08T10:49:52.294Z,16.98
2022-11-08T10:52:20.721Z,17.58
2022-11-08T10:54:53.035Z,18.14
2022-11-08T10:57:31.887Z,17.97
2022-11-08T11:00:20.667Z,18.77
2022-11-08T11:02:52.677Z,18.21
2022-11-08T11:05:27.246Z,17.95
2022-11-08T11:07:57.665Z,18.51
2022-11-08T11:10:47.939Z,18.23
2022-11-08T11:13:22.555Z,18.63
2022-11-08T11:15:59.004Z,18.57
2022-11-08T11:18:32.765Z,17.80
2022-11-08T11:21:05.850Z,17.41
2022-11-08T11:23:51.387Z,17.01
2022-11-08T11:26:30.034Z,16.92
2022-11-08T11:28:59.788Z,16.65
2022-11-08T11:31:26.429Z,16.92
2022-11-08T11:33:53.163Z,16.60
2022-11-08T11:36:24.643Z,16.99
2022-11-08T11:39:04.837Z,17.36
2022-11-08T11:41:40.017Z,17.16
2022-11-08T11:44:17.116Z,17.21
2022-11-08T11:46:50.781Z,16.94
2022-11-08T11:49:21.079Z,17.36
2022-11-08T11:51:51.208Z,16.59
2022-11-08T11:54:18.000Z,16.52
2022-11-08T11:57:03.381Z,16.55
2022-11-08T11:59:45.572Z,16.15
2022-11-08T12:02:31.172Z,16.20
2022-11-08T12:05:16.018Z,16.17
2022-11-08T12:07:58.442Z,16.17
2022-11-08T12:10:54.727Z,15.93
2022-11-08T12:13:56.357Z,16.14
2022-11-08T12:16:34.281Z,16.13
2022-11-08T12:19:10.757Z,16.17
2022-11-08T12:21:57.464Z,16.08
2022-11-08T12:24:44.156Z,16.24
2022-11-08T12:27:16.764Z,16.22
2022-11-08T12:30:02.220Z,16.32
2022-11-08T12:32:50.386Z,16.20
2022-11-08T12:35:38.853Z,16.15
2022-11-08T12:38:30.684Z,16.10
2022-11-08T12:41:20.866Z,16.03
2022-11-08T12:43:59.716Z,15.73
2022-11-08T12:46:31.847Z,15.90
2022-11-08T12:49:08.314Z,15.78
2022-11-08T12:51:46.639Z,15.71
2022-11-08T12:54:33.231Z,15.59
2022-11-08T12:57:03.488Z,15.54
2022-11-08T12:59:46.681Z,15.48
2022-11-08T13:02:27.611Z,15.39
2022-11-08T13:05:13.144Z,15.33
2022-11-08T13:08:05.284Z,15.28
2022-11-08T13:10:34.778Z,15.22
2022-11-08T13:13:19.710Z,15.11
2022-11-08T13:16:21.585Z,15.04
2022-11-08T13:18:53.945Z,15.11
2022-11-08T13:21:38.961Z,15.02
2022-11-08T13:24:14.242Z,14.96
2022-11-08T13:26:55.852Z,14.97
2022-11-08T13:29:27.384Z,14.97
2022-11-08T13:31:57.037Z,14.94
2022-11-08T13:34:26.524Z,14.94
2022-11-08T13:37:07.240Z,14.93
2022-11-08T13:39:45.666Z,14.99
2022-11-08T13:42:15.679Z,14.93
2022-11-08T13:44:54.539Z,14.87
2022-11-08T13:47:33.353Z,14.81
2022-11-08T13:50:31.736Z,14.82
2022-11-08T13:53:07.917Z,14.81
2022-11-08T13:55:43.738Z,14.87
2022-11-08T13:58:40.006Z,14.79
2022-11-08T14:01:37.601Z,14.74
2022-11-08T14:04:27.106Z,14.78
2022-11-08T14:07:09.036Z,14.71
2022-11-08T14:09:51.735Z,14.74
2022-11-08T14:12:27.813Z,14.67
2022-11-08T14:15:24.424Z,14.71
2022-11-08T14:17:51.068Z,14.63
2022-11-08T14:20:29.733Z,14.49
2022-11-08T14:22:58.154Z,14.52
2022-11-08T14:25:29.951Z,14.49
2022-11-08T14:27:57.266Z,14.43
2022-11-08T14:30:24.350Z,14.45
2022-11-08T14:33:18.001Z,14.40
2022-11-08T14:35:59.139Z,14.33
2022-11-08T14:38:28.270Z,14.32
2022-11-08T14:41:01.256Z,14.24
2022-11-08T14:43:29.164Z,14.26
2022-11-08T14:45:58.247Z,14.24
2022-11-08T14:48:29.273Z,14.21
2022-11-08T14:51:03.675Z,14.23
2022-11-08T14:53:32.718Z,14.21
2022-11-08T14:56:18.032Z,14.19
2022-11-08T14:58:45.971Z,14.22
2022-11-08T15:01:15.564Z,14.18
2022-11-08T15:03:51.447Z,14.00
2022-11-08T15:06:18.636Z,14.06
2022-11-08T15:08:46.953Z,14.00
2022-11-08T15:11:28.447Z,14.04
2022-11-08T15:13:59.337Z,14.01
2022-11-08T15:16:26.951Z,13.97
2022-11-08T15:18:53.744Z,13.94
2022-11-08T15:21:30.887Z,13.91
2022-11-08T15:24:15.023Z,13.94
2022-11-08T15:26:59.806Z,13.90
2022-11-08T15:29:26.670Z,13.90
2022-11-08T15:32:01.160Z,13.86
2022-11-08T15:34:38.745Z,13.84
2022-11-08T15:37:36.447Z,13.77
2022-11-08T15:40:16.675Z,13.75
2022-11-08T15:42:46.199Z,13.70
2022-11-08T15:45:12.826Z,13.66
2022-11-08T15:47:44.163Z,13.65
2022-11-08T15:50:15.602Z,13.63
2022-11-08T15:52:42.717Z,13.66
2022-11-08T15:55:14.646Z,13.64
2022-11-08T15:57:43.059Z,13.63
2022-11-08T16:00:31.879Z,13.59
2022-11-08T16:02:59.215Z,13.61
2022-11-08T16:05:28.509Z,13.59
2022-11-08T16:07:55.823Z,13.53
2022-11-08T16:10:40.642Z,13.52
2022-11-08T16:13:18.769Z,13.47
2022-11-08T16:15:46.005Z,13.45
2022-11-08T16:18:13.037Z,13.38
2022-11-08T16:20:40.141Z,13.31
2022-11-08T16:23:09.280Z,13.27
2022-11-08T16:25:42.537Z,13.24
2022-11-08T16:28:35.463Z,13.17
2022-11-08T16:31:03.971Z,13.18
2022-11-08T16:33:32.230Z,13.21
2022-11-08T16:36:01.568Z,13.20
2022-11-08T16:38:33.439Z,13.16
2022-11-08T16:41:00.191Z,13.11
2022-11-08T16:43:27.081Z,13.11
2022-11-08T16:46:09.956Z,13.15
2022-11-08T16:48:38.927Z,13.06
2022-11-08T16:51:12.839Z,13.06
2022-11-08T16:53:39.596Z,13.18
2022-11-08T16:56:06.288Z,13.22
2022-11-08T16:58:33.045Z,13.23
2022-11-08T17:00:59.774Z,13.25
2022-11-08T17:03:30.826Z,13.25
2022-11-08T17:05:57.836Z,13.27
2022-11-08T17:08:25.078Z,13.31
2022-11-08T17:10:52.770Z,13.33
2022-11-08T17:13:21.159Z,13.38
2022-11-08T17:15:49.340Z,13.35
2022-11-08T17:18:19.121Z,13.39
2022-11-08T17:20:46.258Z,13.43
2022-11-08T17:23:13.088Z,13.45
2022-11-08T17:25:43.053Z,13.44
2022-11-08T17:28:12.116Z,13.47
2022-11-08T17:30:44.195Z,13.50
2022-11-08T17:33:12.720Z,13.52
2022-11-08T17:35:42.872Z,13.53
2022-11-08T17:38:12.207Z,13.55
2022-11-08T17:40:39.128Z,13.54
2022-11-08T17:43:06.073Z,13.56
2022-11-08T17:45:32.935Z,13.55
2022-11-08T17:47:59.640Z,13.49
2022-11-08T17:50:26.429Z,13.49
2022-11-08T17:52:54.825Z,13.50
2022-11-08T17:55:21.727Z,13.46
2022-11-08T17:57:48.403Z,13.50
2022-11-08T18:00:16.389Z,13.48
2022-11-08T18:02:43.306Z,13.50
2022-11-08T18:05:10.122Z,13.48
2022-11-08T18:07:38.438Z,13.49
2022-11-08T18:10:07.004Z,13.54
2022-11-08T18:12:36.991Z,13.52
2022-11-08T18:15:05.153Z,13.53
2022-11-08T18:17:31.990Z,13.52
2022-11-08T18:19:58.758Z,13.54
2022-11-08T18:22:25.464Z,13.55
2022-11-08T18:24:52.141Z,13.56
2022-11-08T18:27:18.980Z,13.61
2022-11-08T18:29:45.631Z,13.60
2022-11-08T18:32:12.425Z,13.63
2022-11-08T18:34:39.155Z,13.61
2022-11-08T18:37:05.807Z,13.59
2022-11-08T18:39:32.705Z,13.64
2022-11-08T18:41:59.645Z,13.56
2022-11-08T18:44:26.344Z,13.52
2022-11-08T18:46:53.287Z,13.56
2022-11-08T18:49:20.076Z,13.51
2022-11-08T18:51:51.930Z,13.49
2022-11-08T18:54:18.898Z,13.56
2022-11-08T18:56:45.594Z,13.52
2022-11-08T18:59:12.386Z,13.51
2022-11-08T19:01:39.213Z,13.53
2022-11-08T19:04:06.052Z,13.47
2022-11-08T19:06:33.870Z,13.44
2022-11-08T19:09:00.631Z,13.45
2022-11-08T19:11:30.399Z,13.39
2022-11-08T19:13:58.271Z,13.36
2022-11-08T19:16:25.319Z,13.26
2022-11-08T19:18:52.159Z,13.24
2022-11-08T19:21:21.666Z,13.22
2022-11-08T19:23:49.441Z,13.19
2022-11-08T19:26:21.694Z,13.14
2022-11-08T19:28:49.478Z,13.12
2022-11-08T19:31:20.815Z,13.08
2022-11-08T19:33:50.104Z,13.10
2022-11-08T19:36:21.218Z,13.06
2022-11-08T19:38:48.293Z,13.05
2022-11-08T19:41:20.743Z,13.06
2022-11-08T19:43:48.744Z,13.01
2022-11-08T19:46:18.691Z,13.00
2022-11-08T19:48:47.233Z,12.96
2022-11-08T19:51:17.143Z,13.02
2022-11-08T19:53:44.944Z,12.96
2022-11-08T19:56:15.932Z,12.94
2022-11-08T19:58:43.465Z,12.95
2022-11-08T20:01:14.119Z,12.88
2022-11-08T20:03:41.232Z,12.93
2022-11-08T20:06:09.236Z,13.00
2022-11-08T20:08:36.573Z,12.94
2022-11-08T20:11:14.564Z,12.89
2022-11-08T20:13:41.913Z,12.96
2022-11-08T20:16:13.844Z,13.00
2022-11-08T20:18:41.112Z,12.95
2022-11-08T20:21:10.068Z,12.95
2022-11-08T20:23:37.151Z,12.99
2022-11-08T20:26:07.648Z,13.02
2022-11-08T20:28:36.299Z,13.03
2022-11-08T20:31:10.858Z,13.04
2022-11-08T20:33:39.569Z,13.03
2022-11-08T20:36:11.832Z,13.05
2022-11-08T20:38:38.948Z,13.05
2022-11-08T20:41:08.336Z,13.02
2022-11-08T20:43:35.063Z,13.06
2022-11-08T20:46:06.118Z,13.05
2022-11-08T20:48:33.497Z,13.06
2022-11-08T20:51:02.382Z,13.05
2022-11-08T20:53:32.233Z,13.07
2022-11-08T20:56:00.820Z,12.99
2022-11-08T20:58:29.234Z,13.05
2022-11-08T21:00:58.631Z,13.04
2022-11-08T21:03:26.921Z,13.05
2022-11-08T21:05:58.969Z,13.04
2022-11-08T21:08:58.616Z,13.05
2022-11-08T21:11:14.089Z,13.10
2022-11-08T21:13:43.003Z,13.08
2022-11-08T21:16:28.687Z,13.00
2022-11-08T21:18:57.545Z,13.08
2022-11-08T21:21:25.018Z,13.14
2022-11-08T21:23:52.002Z,13.09
2022-11-08T21:26:20.106Z,13.15
2022-11-08T21:28:47.525Z,13.16
2022-11-08T21:31:14.615Z,13.23
2022-11-08T21:33:41.748Z,13.19
2022-11-08T21:36:09.279Z,13.21
2022-11-08T21:38:37.640Z,13.27
2022-11-08T21:41:05.923Z,13.30
2022-11-08T21:43:43.033Z,13.24
2022-11-08T21:46:19.030Z,13.26
2022-11-08T21:48:47.082Z,13.30
2022-11-08T21:51:14.028Z,13.24
2022-11-08T21:53:49.328Z,13.22
2022-11-08T21:56:22.752Z,13.21
2022-11-08T21:58:49.527Z,13.27
2022-11-08T22:01:16.794Z,13.29
2022-11-08T22:03:43.842Z,13.29
2022-11-08T22:06:10.595Z,13.34
2022-11-08T22:08:37.349Z,13.27
2022-11-08T22:11:04.446Z,13.25
2022-11-08T22:13:31.124Z,13.27
2022-11-08T22:15:58.015Z,13.27
2022-11-08T22:18:36.687Z,13.29
2022-11-08T22:21:28.594Z,13.30
2022-11-08T22:23:55.339Z,13.30
2022-11-08T22:26:22.063Z,13.30
2022-11-08T22:28:48.796Z,13.30
2022-11-08T22:31:15.676Z,13.29
2022-11-08T22:33:42.549Z,13.31
2022-11-08T22:36:09.630Z,13.29
2022-11-08T22:38:36.247Z,13.23
2022-11-08T22:41:03.206Z,13.29
2022-11-08T22:43:30.721Z,13.24
2022-11-08T22:45:57.430Z,13.30
2022-11-08T22:48:24.327Z,13.29
2022-11-08T22:50:51.256Z,13.31
2022-11-08T22:53:18.524Z,13.27
2022-11-08T22:55:45.491Z,13.24
2022-11-08T22:58:12.639Z,13.24
2022-11-08T23:00:39.377Z,13.32
2022-11-08T23:03:06.501Z,13.33
2022-11-08T23:05:33.147Z,13.26
2022-11-08T23:07:59.848Z,13.27
2022-11-08T23:10:26.832Z,13.27
2022-11-08T23:13:12.259Z,13.26
2022-11-08T23:15:57.565Z,13.30
2022-11-08T23:18:24.342Z,13.23
2022-11-08T23:21:13.206Z,13.18
2022-11-08T23:23:58.350Z,13.22
2022-11-08T23:26:43.719Z,13.22
2022-11-08T23:29:30.027Z,13.21
2022-11-08T23:31:57.052Z,13.18
2022-11-08T23:34:23.845Z,13.16
2022-11-08T23:36:50.605Z,13.22
2022-11-08T23:39:17.273Z,13.17
2022-11-08T23:42:02.545Z,13.17
2022-11-08T23:44:29.581Z,13.15
2022-11-08T23:47:01.161Z,13.18
2022-11-08T23:49:28.092Z,13.07
2022-11-08T23:51:54.985Z,13.10
2022-11-08T23:54:21.790Z,13.14
2022-11-08T23:56:48.584Z,13.11
2022-11-08T23:59:16.035Z,13.19
